sensor_id;sensor_type;location;lat;lon;timestamp;P1;durP1;ratioP1;P2;durP2;ratioP2
7432;SDS011;32233;49.500;7.764;2023-09-18T00:00:17;7.87;;;5.27;;
7432;SDS011;32233;49.500;7.764;2023-09-18T00:02:43;6.37;;;4.67;;
7432;SDS011;32233;49.500;7.764;2023-09-18T00:05:10;6.77;;;5.00;;
7432;SDS011;32233;49.500;7.764;2023-09-18T00:07:37;7.97;;;5.03;;
7432;SDS011;32233;49.500;7.764;2023-09-18T00:10:04;7.40;;;4.30;;
7432;SDS011;32233;49.500;7.764;2023-09-18T00:12:30;9.07;;;5.23;;
7432;SDS011;32233;49.500;7.764;2023-09-18T00:14:57;10.43;;;4.57;;
7432;SDS011;32233;49.500;7.764;2023-09-18T00:17:24;8.70;;;4.77;;
7432;SDS011;32233;49.500;7.764;2023-09-18T00:19:50;7.07;;;4.50;;
7432;SDS011;32233;49.500;7.764;2023-09-18T00:22:18;6.60;;;4.70;;
7432;SDS011;32233;49.500;7.764;2023-09-18T00:24:44;8.70;;;4.30;;
7432;SDS011;32233;49.500;7.764;2023-09-18T00:27:11;7.60;;;4.60;;
7432;SDS011;32233;49.500;7.764;2023-09-18T00:29:38;7.77;;;4.90;;
7432;SDS011;32233;49.500;7.764;2023-09-18T00:32:04;6.27;;;4.37;;
7432;SDS011;32233;49.500;7.764;2023-09-18T00:34:32;6.70;;;4.40;;
7432;SDS011;32233;49.500;7.764;2023-09-18T00:36:58;6.30;;;4.70;;
7432;SDS011;32233;49.500;7.764;2023-09-18T00:39:26;10.27;;;4.50;;
7432;SDS011;32233;49.500;7.764;2023-09-18T00:41:52;7.83;;;4.67;;
7432;SDS011;32233;49.500;7.764;2023-09-18T00:44:20;7.70;;;4.90;;
7432;SDS011;32233;49.500;7.764;2023-09-18T00:46:48;8.70;;;4.63;;
7432;SDS011;32233;49.500;7.764;2023-09-18T00:49:16;5.27;;;4.50;;
7432;SDS011;32233;49.500;7.764;2023-09-18T00:51:44;6.20;;;4.40;;
7432;SDS011;32233;49.500;7.764;2023-09-18T00:54:13;7.43;;;4.57;;
7432;SDS011;32233;49.500;7.764;2023-09-18T00:56:43;9.37;;;4.40;;
7432;SDS011;32233;49.500;7.764;2023-09-18T00:59:10;7.87;;;3.97;;
7432;SDS011;32233;49.500;7.764;2023-09-18T01:01:38;8.50;;;4.00;;
7432;SDS011;32233;49.500;7.764;2023-09-18T01:04:05;7.47;;;4.47;;
7432;SDS011;32233;49.500;7.764;2023-09-18T01:06:32;7.23;;;4.17;;
7432;SDS011;32233;49.500;7.764;2023-09-18T01:08:58;8.33;;;4.57;;
7432;SDS011;32233;49.500;7.764;2023-09-18T01:14:43;6.43;;;3.60;;
7432;SDS011;32233;49.500;7.764;2023-09-18T01:17:16;8.97;;;4.60;;
7432;SDS011;32233;49.500;7.764;2023-09-18T01:19:45;10.23;;;4.80;;
7432;SDS011;32233;49.500;7.764;2023-09-18T01:22:13;7.60;;;4.53;;
7432;SDS011;32233;49.500;7.764;2023-09-18T01:24:43;6.47;;;4.63;;
7432;SDS011;32233;49.500;7.764;2023-09-18T01:27:12;10.10;;;4.30;;
7432;SDS011;32233;49.500;7.764;2023-09-18T01:29:40;5.87;;;3.90;;
7432;SDS011;32233;49.500;7.764;2023-09-18T01:32:07;6.10;;;3.80;;
7432;SDS011;32233;49.500;7.764;2023-09-18T01:34:37;5.37;;;3.50;;
7432;SDS011;32233;49.500;7.764;2023-09-18T01:37:09;7.27;;;3.90;;
7432;SDS011;32233;49.500;7.764;2023-09-18T01:39:38;6.13;;;4.00;;
7432;SDS011;32233;49.500;7.764;2023-09-18T01:42:06;7.33;;;4.07;;
7432;SDS011;32233;49.500;7.764;2023-09-18T01:44:36;7.30;;;4.60;;
7432;SDS011;32233;49.500;7.764;2023-09-18T01:47:07;7.50;;;4.63;;
7432;SDS011;32233;49.500;7.764;2023-09-18T01:49:35;10.37;;;4.90;;
7432;SDS011;32233;49.500;7.764;2023-09-18T01:52:03;9.47;;;5.13;;
7432;SDS011;32233;49.500;7.764;2023-09-18T01:54:31;9.53;;;5.60;;
7432;SDS011;32233;49.500;7.764;2023-09-18T01:56:59;7.40;;;5.20;;
7432;SDS011;32233;49.500;7.764;2023-09-18T01:59:26;7.60;;;5.30;;
7432;SDS011;32233;49.500;7.764;2023-09-18T02:01:53;7.60;;;5.20;;
7432;SDS011;32233;49.500;7.764;2023-09-18T02:04:20;9.10;;;5.20;;
7432;SDS011;32233;49.500;7.764;2023-09-18T02:07:07;7.77;;;5.40;;
7432;SDS011;32233;49.500;7.764;2023-09-18T02:09:35;6.67;;;5.10;;
7432;SDS011;32233;49.500;7.764;2023-09-18T02:12:02;6.77;;;4.90;;
7432;SDS011;32233;49.500;7.764;2023-09-18T02:14:30;10.23;;;5.63;;
7432;SDS011;32233;49.500;7.764;2023-09-18T02:16:57;11.93;;;5.37;;
7432;SDS011;32233;49.500;7.764;2023-09-18T02:19:24;9.03;;;5.40;;
7432;SDS011;32233;49.500;7.764;2023-09-18T02:21:52;10.10;;;5.20;;
7432;SDS011;32233;49.500;7.764;2023-09-18T02:24:22;10.03;;;5.33;;
7432;SDS011;32233;49.500;7.764;2023-09-18T02:26:49;8.83;;;4.93;;
7432;SDS011;32233;49.500;7.764;2023-09-18T02:29:16;9.67;;;4.93;;
7432;SDS011;32233;49.500;7.764;2023-09-18T02:31:43;10.43;;;5.10;;
7432;SDS011;32233;49.500;7.764;2023-09-18T02:34:09;8.77;;;5.57;;
7432;SDS011;32233;49.500;7.764;2023-09-18T02:36:37;8.37;;;5.00;;
7432;SDS011;32233;49.500;7.764;2023-09-18T02:39:04;11.30;;;5.60;;
7432;SDS011;32233;49.500;7.764;2023-09-18T02:41:30;8.77;;;5.07;;
7432;SDS011;32233;49.500;7.764;2023-09-18T02:43:57;8.67;;;5.50;;
7432;SDS011;32233;49.500;7.764;2023-09-18T02:46:24;8.63;;;5.20;;
7432;SDS011;32233;49.500;7.764;2023-09-18T02:48:50;8.97;;;5.13;;
7432;SDS011;32233;49.500;7.764;2023-09-18T02:51:18;12.47;;;5.00;;
7432;SDS011;32233;49.500;7.764;2023-09-18T02:53:45;11.10;;;5.10;;
7432;SDS011;32233;49.500;7.764;2023-09-18T02:56:11;10.67;;;4.63;;
7432;SDS011;32233;49.500;7.764;2023-09-18T02:58:38;13.83;;;4.00;;
7432;SDS011;32233;49.500;7.764;2023-09-18T03:01:06;15.07;;;4.03;;
7432;SDS011;32233;49.500;7.764;2023-09-18T03:03:34;12.83;;;4.00;;
7432;SDS011;32233;49.500;7.764;2023-09-18T03:06:01;14.23;;;3.93;;
7432;SDS011;32233;49.500;7.764;2023-09-18T03:08:29;10.23;;;3.67;;
7432;SDS011;32233;49.500;7.764;2023-09-18T03:10:57;10.43;;;3.50;;
7432;SDS011;32233;49.500;7.764;2023-09-18T03:13:25;12.77;;;3.87;;
7432;SDS011;32233;49.500;7.764;2023-09-18T03:15:53;16.60;;;4.00;;
7432;SDS011;32233;49.500;7.764;2023-09-18T03:18:20;15.03;;;3.97;;
7432;SDS011;32233;49.500;7.764;2023-09-18T03:20:47;12.80;;;4.07;;
7432;SDS011;32233;49.500;7.764;2023-09-18T03:23:14;15.63;;;4.50;;
7432;SDS011;32233;49.500;7.764;2023-09-18T03:25:41;12.57;;;4.10;;
7432;SDS011;32233;49.500;7.764;2023-09-18T03:28:16;14.53;;;4.57;;
7432;SDS011;32233;49.500;7.764;2023-09-18T03:30:43;15.97;;;3.70;;
7432;SDS011;32233;49.500;7.764;2023-09-18T03:33:10;21.83;;;4.20;;
7432;SDS011;32233;49.500;7.764;2023-09-18T03:35:50;16.17;;;3.73;;
7432;SDS011;32233;49.500;7.764;2023-09-18T03:38:22;15.43;;;4.20;;
7432;SDS011;32233;49.500;7.764;2023-09-18T03:40:49;15.83;;;4.10;;
7432;SDS011;32233;49.500;7.764;2023-09-18T03:43:16;16.07;;;3.63;;
7432;SDS011;32233;49.500;7.764;2023-09-18T03:45:44;19.53;;;4.17;;
7432;SDS011;32233;49.500;7.764;2023-09-18T03:48:11;16.70;;;4.13;;
7432;SDS011;32233;49.500;7.764;2023-09-18T03:50:40;12.47;;;3.70;;
7432;SDS011;32233;49.500;7.764;2023-09-18T03:53:07;14.40;;;4.17;;
7432;SDS011;32233;49.500;7.764;2023-09-18T03:55:34;19.40;;;4.50;;
7432;SDS011;32233;49.500;7.764;2023-09-18T03:58:01;14.43;;;3.73;;
7432;SDS011;32233;49.500;7.764;2023-09-18T04:00:27;12.57;;;4.33;;
7432;SDS011;32233;49.500;7.764;2023-09-18T04:02:54;14.90;;;3.37;;
7432;SDS011;32233;49.500;7.764;2023-09-18T04:05:21;11.20;;;3.87;;
7432;SDS011;32233;49.500;7.764;2023-09-18T04:07:48;12.07;;;4.13;;
7432;SDS011;32233;49.500;7.764;2023-09-18T04:10:14;15.57;;;4.07;;
7432;SDS011;32233;49.500;7.764;2023-09-18T04:12:50;13.40;;;4.10;;
7432;SDS011;32233;49.500;7.764;2023-09-18T04:15:19;17.53;;;4.10;;
7432;SDS011;32233;49.500;7.764;2023-09-18T04:17:47;15.00;;;4.20;;
7432;SDS011;32233;49.500;7.764;2023-09-18T04:20:14;14.23;;;4.57;;
7432;SDS011;32233;49.500;7.764;2023-09-18T04:22:45;18.27;;;4.70;;
7432;SDS011;32233;49.500;7.764;2023-09-18T04:25:17;14.93;;;4.10;;
7432;SDS011;32233;49.500;7.764;2023-09-18T04:27:46;16.57;;;4.10;;
7432;SDS011;32233;49.500;7.764;2023-09-18T04:30:13;17.57;;;4.57;;
7432;SDS011;32233;49.500;7.764;2023-09-18T04:32:40;16.77;;;4.13;;
7432;SDS011;32233;49.500;7.764;2023-09-18T04:35:08;13.63;;;4.90;;
7432;SDS011;32233;49.500;7.764;2023-09-18T04:37:36;10.17;;;3.53;;
7432;SDS011;32233;49.500;7.764;2023-09-18T04:40:05;14.40;;;3.97;;
7432;SDS011;32233;49.500;7.764;2023-09-18T04:42:38;11.73;;;4.30;;
7432;SDS011;32233;49.500;7.764;2023-09-18T04:45:09;15.00;;;3.90;;
7432;SDS011;32233;49.500;7.764;2023-09-18T04:47:36;13.00;;;3.93;;
7432;SDS011;32233;49.500;7.764;2023-09-18T04:50:03;12.13;;;3.93;;
7432;SDS011;32233;49.500;7.764;2023-09-18T04:52:39;13.20;;;4.10;;
7432;SDS011;32233;49.500;7.764;2023-09-18T04:55:08;14.63;;;4.40;;
7432;SDS011;32233;49.500;7.764;2023-09-18T04:57:35;20.00;;;4.40;;
7432;SDS011;32233;49.500;7.764;2023-09-18T05:00:02;10.13;;;3.80;;
7432;SDS011;32233;49.500;7.764;2023-09-18T05:02:41;13.37;;;4.30;;
7432;SDS011;32233;49.500;7.764;2023-09-18T05:05:08;15.87;;;4.33;;
7432;SDS011;32233;49.500;7.764;2023-09-18T05:07:38;17.27;;;4.20;;
7432;SDS011;32233;49.500;7.764;2023-09-18T05:10:05;8.63;;;3.30;;
7432;SDS011;32233;49.500;7.764;2023-09-18T05:12:32;13.90;;;3.90;;
7432;SDS011;32233;49.500;7.764;2023-09-18T05:14:58;13.17;;;4.07;;
7432;SDS011;32233;49.500;7.764;2023-09-18T05:17:44;12.80;;;3.67;;
7432;SDS011;32233;49.500;7.764;2023-09-18T05:20:15;16.20;;;4.10;;
7432;SDS011;32233;49.500;7.764;2023-09-18T05:22:43;17.53;;;4.37;;
7432;SDS011;32233;49.500;7.764;2023-09-18T05:25:11;13.03;;;3.87;;
7432;SDS011;32233;49.500;7.764;2023-09-18T05:27:39;9.07;;;3.93;;
7432;SDS011;32233;49.500;7.764;2023-09-18T05:30:12;10.53;;;4.27;;
7432;SDS011;32233;49.500;7.764;2023-09-18T05:32:44;11.73;;;4.30;;
7432;SDS011;32233;49.500;7.764;2023-09-18T05:35:12;14.53;;;3.63;;
7432;SDS011;32233;49.500;7.764;2023-09-18T05:37:40;11.03;;;4.10;;
7432;SDS011;32233;49.500;7.764;2023-09-18T05:40:07;14.80;;;4.87;;
7432;SDS011;32233;49.500;7.764;2023-09-18T05:42:36;13.17;;;4.40;;
7432;SDS011;32233;49.500;7.764;2023-09-18T05:45:09;14.00;;;4.13;;
7432;SDS011;32233;49.500;7.764;2023-09-18T05:47:37;10.97;;;3.70;;
7432;SDS011;32233;49.500;7.764;2023-09-18T05:50:06;11.07;;;3.90;;
7432;SDS011;32233;49.500;7.764;2023-09-18T05:52:35;11.67;;;4.13;;
7432;SDS011;32233;49.500;7.764;2023-09-18T05:55:02;13.67;;;4.00;;
7432;SDS011;32233;49.500;7.764;2023-09-18T05:57:31;14.70;;;3.63;;
7432;SDS011;32233;49.500;7.764;2023-09-18T05:59:58;13.07;;;3.83;;
7432;SDS011;32233;49.500;7.764;2023-09-18T06:02:24;14.73;;;4.30;;
7432;SDS011;32233;49.500;7.764;2023-09-18T06:04:54;11.97;;;3.77;;
7432;SDS011;32233;49.500;7.764;2023-09-18T06:07:24;10.03;;;4.20;;
7432;SDS011;32233;49.500;7.764;2023-09-18T06:09:51;9.00;;;3.70;;
7432;SDS011;32233;49.500;7.764;2023-09-18T06:12:17;16.43;;;4.43;;
7432;SDS011;32233;49.500;7.764;2023-09-18T06:14:44;11.23;;;4.10;;
7432;SDS011;32233;49.500;7.764;2023-09-18T06:17:12;16.20;;;3.77;;
7432;SDS011;32233;49.500;7.764;2023-09-18T06:19:41;13.40;;;3.83;;
7432;SDS011;32233;49.500;7.764;2023-09-18T06:22:08;9.37;;;3.13;;
7432;SDS011;32233;49.500;7.764;2023-09-18T06:24:35;14.10;;;3.97;;
7432;SDS011;32233;49.500;7.764;2023-09-18T06:27:02;11.83;;;3.97;;
7432;SDS011;32233;49.500;7.764;2023-09-18T06:29:31;13.77;;;4.17;;
7432;SDS011;32233;49.500;7.764;2023-09-18T06:31:58;7.00;;;3.63;;
7432;SDS011;32233;49.500;7.764;2023-09-18T06:34:25;10.10;;;3.73;;
7432;SDS011;32233;49.500;7.764;2023-09-18T06:36:51;10.97;;;3.27;;
7432;SDS011;32233;49.500;7.764;2023-09-18T06:39:18;10.30;;;3.70;;
7432;SDS011;32233;49.500;7.764;2023-09-18T06:41:46;17.17;;;3.87;;
7432;SDS011;32233;49.500;7.764;2023-09-18T06:44:13;13.97;;;3.93;;
7432;SDS011;32233;49.500;7.764;2023-09-18T06:46:39;10.80;;;3.50;;
7432;SDS011;32233;49.500;7.764;2023-09-18T06:49:07;8.67;;;3.40;;
7432;SDS011;32233;49.500;7.764;2023-09-18T06:51:33;10.37;;;3.97;;
7432;SDS011;32233;49.500;7.764;2023-09-18T06:54:08;10.33;;;3.63;;
7432;SDS011;32233;49.500;7.764;2023-09-18T06:56:35;10.23;;;3.43;;
7432;SDS011;32233;49.500;7.764;2023-09-18T06:59:02;10.20;;;3.90;;
7432;SDS011;32233;49.500;7.764;2023-09-18T07:01:28;12.20;;;3.67;;
7432;SDS011;32233;49.500;7.764;2023-09-18T07:03:58;14.83;;;3.77;;
7432;SDS011;32233;49.500;7.764;2023-09-18T07:06:26;13.60;;;4.10;;
7432;SDS011;32233;49.500;7.764;2023-09-18T07:08:53;10.27;;;3.67;;
7432;SDS011;32233;49.500;7.764;2023-09-18T07:11:20;11.40;;;3.43;;
7432;SDS011;32233;49.500;7.764;2023-09-18T07:13:49;6.93;;;3.53;;
7432;SDS011;32233;49.500;7.764;2023-09-18T07:16:16;11.43;;;3.23;;
7432;SDS011;32233;49.500;7.764;2023-09-18T07:18:43;10.63;;;3.20;;
7432;SDS011;32233;49.500;7.764;2023-09-18T07:21:09;9.20;;;3.00;;
7432;SDS011;32233;49.500;7.764;2023-09-18T07:23:36;7.10;;;2.60;;
7432;SDS011;32233;49.500;7.764;2023-09-18T07:26:03;9.60;;;2.70;;
7432;SDS011;32233;49.500;7.764;2023-09-18T07:28:30;12.13;;;3.10;;
7432;SDS011;32233;49.500;7.764;2023-09-18T07:30:56;8.73;;;2.63;;
7432;SDS011;32233;49.500;7.764;2023-09-18T07:33:23;7.10;;;2.83;;
7432;SDS011;32233;49.500;7.764;2023-09-18T07:35:51;6.80;;;2.47;;
7432;SDS011;32233;49.500;7.764;2023-09-18T07:38:20;7.50;;;3.30;;
7432;SDS011;32233;49.500;7.764;2023-09-18T07:40:47;6.57;;;2.57;;
7432;SDS011;32233;49.500;7.764;2023-09-18T07:43:14;6.00;;;2.23;;
7432;SDS011;32233;49.500;7.764;2023-09-18T07:45:40;8.23;;;2.37;;
7432;SDS011;32233;49.500;7.764;2023-09-18T07:48:07;5.80;;;2.20;;
7432;SDS011;32233;49.500;7.764;2023-09-18T07:50:34;7.97;;;2.60;;
7432;SDS011;32233;49.500;7.764;2023-09-18T07:53:01;7.10;;;2.43;;
7432;SDS011;32233;49.500;7.764;2023-09-18T07:55:28;11.83;;;2.43;;
7432;SDS011;32233;49.500;7.764;2023-09-18T07:57:56;6.73;;;2.20;;
7432;SDS011;32233;49.500;7.764;2023-09-18T08:00:24;6.03;;;1.83;;
7432;SDS011;32233;49.500;7.764;2023-09-18T08:02:53;7.90;;;2.23;;
7432;SDS011;32233;49.500;7.764;2023-09-18T08:05:25;5.70;;;2.03;;
7432;SDS011;32233;49.500;7.764;2023-09-18T08:07:54;7.53;;;1.67;;
7432;SDS011;32233;49.500;7.764;2023-09-18T08:10:23;5.73;;;1.67;;
7432;SDS011;32233;49.500;7.764;2023-09-18T08:12:50;4.70;;;1.63;;
7432;SDS011;32233;49.500;7.764;2023-09-18T08:15:19;4.13;;;1.27;;
7432;SDS011;32233;49.500;7.764;2023-09-18T08:17:46;4.43;;;1.30;;
7432;SDS011;32233;49.500;7.764;2023-09-18T08:20:16;3.33;;;1.13;;
7432;SDS011;32233;49.500;7.764;2023-09-18T08:22:43;2.37;;;1.00;;
7432;SDS011;32233;49.500;7.764;2023-09-18T08:25:10;3.30;;;1.07;;
7432;SDS011;32233;49.500;7.764;2023-09-18T08:27:38;3.20;;;1.17;;
7432;SDS011;32233;49.500;7.764;2023-09-18T08:30:08;5.67;;;1.27;;
7432;SDS011;32233;49.500;7.764;2023-09-18T08:32:36;3.80;;;1.17;;
7432;SDS011;32233;49.500;7.764;2023-09-18T08:35:04;4.83;;;1.30;;
7432;SDS011;32233;49.500;7.764;2023-09-18T08:37:31;3.50;;;1.03;;
7432;SDS011;32233;49.500;7.764;2023-09-18T08:39:58;2.33;;;0.80;;
7432;SDS011;32233;49.500;7.764;2023-09-18T08:42:30;2.23;;;0.93;;
7432;SDS011;32233;49.500;7.764;2023-09-18T08:45:00;2.60;;;0.90;;
7432;SDS011;32233;49.500;7.764;2023-09-18T08:47:29;2.53;;;1.00;;
7432;SDS011;32233;49.500;7.764;2023-09-18T08:49:59;5.07;;;1.03;;
7432;SDS011;32233;49.500;7.764;2023-09-18T08:52:27;3.27;;;1.33;;
7432;SDS011;32233;49.500;7.764;2023-09-18T08:54:54;4.97;;;1.17;;
7432;SDS011;32233;49.500;7.764;2023-09-18T08:57:22;2.83;;;1.10;;
7432;SDS011;32233;49.500;7.764;2023-09-18T08:59:49;8.50;;;1.00;;
7432;SDS011;32233;49.500;7.764;2023-09-18T09:02:18;2.00;;;0.80;;
7432;SDS011;32233;49.500;7.764;2023-09-18T09:04:45;3.83;;;1.03;;
7432;SDS011;32233;49.500;7.764;2023-09-18T09:07:11;3.93;;;1.20;;
7432;SDS011;32233;49.500;7.764;2023-09-18T09:09:38;2.63;;;1.03;;
7432;SDS011;32233;49.500;7.764;2023-09-18T09:12:05;3.13;;;1.03;;
7432;SDS011;32233;49.500;7.764;2023-09-18T09:14:32;3.17;;;1.10;;
7432;SDS011;32233;49.500;7.764;2023-09-18T09:16:59;4.83;;;1.23;;
7432;SDS011;32233;49.500;7.764;2023-09-18T09:19:35;2.87;;;1.00;;
7432;SDS011;32233;49.500;7.764;2023-09-18T09:22:08;2.27;;;1.00;;
7432;SDS011;32233;49.500;7.764;2023-09-18T09:24:44;5.37;;;1.07;;
7432;SDS011;32233;49.500;7.764;2023-09-18T09:27:11;3.60;;;1.40;;
7432;SDS011;32233;49.500;7.764;2023-09-18T09:29:40;1.77;;;0.83;;
7432;SDS011;32233;49.500;7.764;2023-09-18T09:34:43;1.93;;;1.00;;
7432;SDS011;32233;49.500;7.764;2023-09-18T09:37:10;4.50;;;1.00;;
7432;SDS011;32233;49.500;7.764;2023-09-18T09:39:50;3.33;;;1.10;;
7432;SDS011;32233;49.500;7.764;2023-09-18T09:42:20;4.83;;;1.00;;
7432;SDS011;32233;49.500;7.764;2023-09-18T09:45:00;4.17;;;1.00;;
7432;SDS011;32233;49.500;7.764;2023-09-18T09:47:32;4.33;;;0.90;;
7432;SDS011;32233;49.500;7.764;2023-09-18T09:50:06;2.97;;;1.00;;
7432;SDS011;32233;49.500;7.764;2023-09-18T09:52:35;3.63;;;1.20;;
7432;SDS011;32233;49.500;7.764;2023-09-18T09:55:17;4.83;;;1.10;;
7432;SDS011;32233;49.500;7.764;2023-09-18T09:58:01;2.77;;;0.97;;
7432;SDS011;32233;49.500;7.764;2023-09-18T10:03:10;3.20;;;1.00;;
7432;SDS011;32233;49.500;7.764;2023-09-18T10:05:38;4.07;;;1.10;;
7432;SDS011;32233;49.500;7.764;2023-09-18T10:10:42;5.37;;;1.00;;
7432;SDS011;32233;49.500;7.764;2023-09-18T10:13:18;2.80;;;1.00;;
7432;SDS011;32233;49.500;7.764;2023-09-18T10:15:58;3.30;;;0.90;;
7432;SDS011;32233;49.500;7.764;2023-09-18T10:18:32;3.73;;;0.90;;
7432;SDS011;32233;49.500;7.764;2023-09-18T10:21:14;2.43;;;0.80;;
7432;SDS011;32233;49.500;7.764;2023-09-18T10:27:02;6.63;;;3.50;;
7432;SDS011;32233;49.500;7.764;2023-09-18T10:29:35;6.07;;;3.00;;
7432;SDS011;32233;49.500;7.764;2023-09-18T10:32:03;3.53;;;1.57;;
7432;SDS011;32233;49.500;7.764;2023-09-18T10:34:37;6.60;;;3.53;;
7432;SDS011;32233;49.500;7.764;2023-09-18T10:37:05;3.53;;;2.23;;
7432;SDS011;32233;49.500;7.764;2023-09-18T10:39:35;1.33;;;1.10;;
7432;SDS011;32233;49.500;7.764;2023-09-18T10:42:04;3.47;;;1.40;;
7432;SDS011;32233;49.500;7.764;2023-09-18T10:44:33;2.23;;;0.90;;
7432;SDS011;32233;49.500;7.764;2023-09-18T10:47:03;2.07;;;1.10;;
7432;SDS011;32233;49.500;7.764;2023-09-18T10:49:33;2.53;;;0.90;;
7432;SDS011;32233;49.500;7.764;2023-09-18T10:52:01;6.93;;;1.30;;
7432;SDS011;32233;49.500;7.764;2023-09-18T10:54:30;2.33;;;1.10;;
7432;SDS011;32233;49.500;7.764;2023-09-18T10:56:57;3.77;;;0.93;;
7432;SDS011;32233;49.500;7.764;2023-09-18T10:59:24;2.07;;;1.00;;
7432;SDS011;32233;49.500;7.764;2023-09-18T11:01:51;2.23;;;1.10;;
7432;SDS011;32233;49.500;7.764;2023-09-18T11:04:20;4.27;;;1.13;;
7432;SDS011;32233;49.500;7.764;2023-09-18T11:09:24;3.27;;;1.00;;
7432;SDS011;32233;49.500;7.764;2023-09-18T11:14:42;2.63;;;0.83;;
7432;SDS011;32233;49.500;7.764;2023-09-18T11:22:57;2.13;;;1.03;;
7432;SDS011;32233;49.500;7.764;2023-09-18T11:25:31;4.77;;;1.20;;
7432;SDS011;32233;49.500;7.764;2023-09-18T11:28:02;3.20;;;1.13;;
7432;SDS011;32233;49.500;7.764;2023-09-18T11:30:29;2.57;;;0.90;;
7432;SDS011;32233;49.500;7.764;2023-09-18T11:32:56;2.87;;;1.10;;
7432;SDS011;32233;49.500;7.764;2023-09-18T11:35:23;3.83;;;1.40;;
7432;SDS011;32233;49.500;7.764;2023-09-18T11:38:10;2.10;;;1.13;;
7432;SDS011;32233;49.500;7.764;2023-09-18T11:40:37;2.43;;;1.30;;
7432;SDS011;32233;49.500;7.764;2023-09-18T11:43:23;4.80;;;1.10;;
7432;SDS011;32233;49.500;7.764;2023-09-18T11:45:58;4.23;;;1.50;;
7432;SDS011;32233;49.500;7.764;2023-09-18T11:48:28;3.87;;;1.20;;
7432;SDS011;32233;49.500;7.764;2023-09-18T11:50:57;2.83;;;1.23;;
7432;SDS011;32233;49.500;7.764;2023-09-18T11:53:24;1.40;;;1.30;;
7432;SDS011;32233;49.500;7.764;2023-09-18T11:55:53;4.17;;;1.30;;
7432;SDS011;32233;49.500;7.764;2023-09-18T11:58:21;3.13;;;1.20;;
7432;SDS011;32233;49.500;7.764;2023-09-18T12:00:50;5.33;;;1.20;;
7432;SDS011;32233;49.500;7.764;2023-09-18T12:03:17;3.30;;;1.70;;
7432;SDS011;32233;49.500;7.764;2023-09-18T12:05:56;3.47;;;1.13;;
7432;SDS011;32233;49.500;7.764;2023-09-18T12:08:25;2.43;;;1.40;;
7432;SDS011;32233;49.500;7.764;2023-09-18T12:10:56;5.73;;;1.37;;
7432;SDS011;32233;49.500;7.764;2023-09-18T12:13:24;5.30;;;1.83;;
7432;SDS011;32233;49.500;7.764;2023-09-18T12:15:58;10.87;;;1.70;;
7432;SDS011;32233;49.500;7.764;2023-09-18T12:18:28;4.93;;;1.33;;
7432;SDS011;32233;49.500;7.764;2023-09-18T12:20:56;3.37;;;1.30;;
7432;SDS011;32233;49.500;7.764;2023-09-18T12:23:25;3.83;;;1.40;;
7432;SDS011;32233;49.500;7.764;2023-09-18T12:25:57;4.43;;;1.70;;
7432;SDS011;32233;49.500;7.764;2023-09-18T12:28:26;5.50;;;1.57;;
7432;SDS011;32233;49.500;7.764;2023-09-18T12:30:55;3.20;;;1.50;;
7432;SDS011;32233;49.500;7.764;2023-09-18T12:33:23;3.23;;;1.60;;
7432;SDS011;32233;49.500;7.764;2023-09-18T12:35:50;6.00;;;1.57;;
7432;SDS011;32233;49.500;7.764;2023-09-18T12:38:18;2.27;;;1.50;;
7432;SDS011;32233;49.500;7.764;2023-09-18T12:40:49;3.77;;;1.27;;
7432;SDS011;32233;49.500;7.764;2023-09-18T12:43:16;1.70;;;1.30;;
7432;SDS011;32233;49.500;7.764;2023-09-18T12:45:43;4.97;;;1.90;;
7432;SDS011;32233;49.500;7.764;2023-09-18T12:48:11;2.20;;;1.43;;
7432;SDS011;32233;49.500;7.764;2023-09-18T12:50:40;2.47;;;1.40;;
7432;SDS011;32233;49.500;7.764;2023-09-18T12:53:11;5.10;;;1.17;;
7432;SDS011;32233;49.500;7.764;2023-09-18T12:55:39;3.50;;;1.40;;
7432;SDS011;32233;49.500;7.764;2023-09-18T12:58:10;4.37;;;1.47;;
7432;SDS011;32233;49.500;7.764;2023-09-18T13:00:40;1.90;;;1.40;;
7432;SDS011;32233;49.500;7.764;2023-09-18T13:03:16;3.27;;;1.60;;
7432;SDS011;32233;49.500;7.764;2023-09-18T13:05:43;3.03;;;1.20;;
7432;SDS011;32233;49.500;7.764;2023-09-18T13:08:10;2.47;;;1.40;;
7432;SDS011;32233;49.500;7.764;2023-09-18T13:10:45;2.57;;;1.30;;
7432;SDS011;32233;49.500;7.764;2023-09-18T13:13:19;3.63;;;1.23;;
7432;SDS011;32233;49.500;7.764;2023-09-18T13:15:48;1.63;;;1.13;;
7432;SDS011;32233;49.500;7.764;2023-09-18T13:18:18;1.80;;;1.10;;
7432;SDS011;32233;49.500;7.764;2023-09-18T13:20:46;1.93;;;1.23;;
7432;SDS011;32233;49.500;7.764;2023-09-18T13:23:12;2.27;;;1.40;;
7432;SDS011;32233;49.500;7.764;2023-09-18T13:25:39;4.00;;;1.50;;
7432;SDS011;32233;49.500;7.764;2023-09-18T13:28:11;3.53;;;1.50;;
7432;SDS011;32233;49.500;7.764;2023-09-18T13:30:39;2.33;;;1.40;;
7432;SDS011;32233;49.500;7.764;2023-09-18T13:33:10;3.27;;;1.40;;
7432;SDS011;32233;49.500;7.764;2023-09-18T13:35:39;2.83;;;1.30;;
7432;SDS011;32233;49.500;7.764;2023-09-18T13:38:08;2.77;;;1.70;;
7432;SDS011;32233;49.500;7.764;2023-09-18T13:40:35;4.83;;;1.30;;
7432;SDS011;32233;49.500;7.764;2023-09-18T13:43:02;4.07;;;1.37;;
7432;SDS011;32233;49.500;7.764;2023-09-18T13:45:30;2.30;;;1.30;;
7432;SDS011;32233;49.500;7.764;2023-09-18T13:47:58;2.67;;;1.10;;
7432;SDS011;32233;49.500;7.764;2023-09-18T13:50:25;2.70;;;1.23;;
7432;SDS011;32233;49.500;7.764;2023-09-18T13:52:52;2.07;;;1.50;;
7432;SDS011;32233;49.500;7.764;2023-09-18T13:55:20;3.03;;;1.37;;
7432;SDS011;32233;49.500;7.764;2023-09-18T13:57:47;3.20;;;1.40;;
7432;SDS011;32233;49.500;7.764;2023-09-18T14:00:14;3.40;;;1.40;;
7432;SDS011;32233;49.500;7.764;2023-09-18T14:02:41;5.17;;;1.50;;
7432;SDS011;32233;49.500;7.764;2023-09-18T14:05:08;3.67;;;1.43;;
7432;SDS011;32233;49.500;7.764;2023-09-18T14:07:42;1.47;;;1.00;;
7432;SDS011;32233;49.500;7.764;2023-09-18T14:10:09;1.83;;;1.40;;
7432;SDS011;32233;49.500;7.764;2023-09-18T14:12:37;3.73;;;1.30;;
7432;SDS011;32233;49.500;7.764;2023-09-18T14:15:07;1.60;;;1.17;;
7432;SDS011;32233;49.500;7.764;2023-09-18T14:17:36;5.37;;;1.70;;
7432;SDS011;32233;49.500;7.764;2023-09-18T14:20:04;3.07;;;1.30;;
7432;SDS011;32233;49.500;7.764;2023-09-18T14:22:34;2.67;;;1.50;;
7432;SDS011;32233;49.500;7.764;2023-09-18T14:25:01;2.20;;;1.10;;
7432;SDS011;32233;49.500;7.764;2023-09-18T14:27:31;3.77;;;1.40;;
7432;SDS011;32233;49.500;7.764;2023-09-18T14:29:58;2.90;;;1.50;;
7432;SDS011;32233;49.500;7.764;2023-09-18T14:32:25;2.43;;;1.20;;
7432;SDS011;32233;49.500;7.764;2023-09-18T14:34:52;2.33;;;1.43;;
7432;SDS011;32233;49.500;7.764;2023-09-18T14:37:19;3.03;;;1.40;;
7432;SDS011;32233;49.500;7.764;2023-09-18T14:39:45;3.03;;;1.20;;
7432;SDS011;32233;49.500;7.764;2023-09-18T14:42:13;7.43;;;1.33;;
7432;SDS011;32233;49.500;7.764;2023-09-18T14:44:39;3.07;;;1.10;;
7432;SDS011;32233;49.500;7.764;2023-09-18T14:47:11;1.53;;;1.20;;
7432;SDS011;32233;49.500;7.764;2023-09-18T14:49:38;1.70;;;1.10;;
7432;SDS011;32233;49.500;7.764;2023-09-18T14:52:05;4.80;;;1.50;;
7432;SDS011;32233;49.500;7.764;2023-09-18T14:54:32;3.03;;;1.50;;
7432;SDS011;32233;49.500;7.764;2023-09-18T14:56:59;2.73;;;1.33;;
7432;SDS011;32233;49.500;7.764;2023-09-18T14:59:27;4.53;;;1.13;;
7432;SDS011;32233;49.500;7.764;2023-09-18T15:02:07;3.63;;;1.50;;
7432;SDS011;32233;49.500;7.764;2023-09-18T15:04:34;4.43;;;1.50;;
7432;SDS011;32233;49.500;7.764;2023-09-18T15:07:01;2.40;;;1.27;;
7432;SDS011;32233;49.500;7.764;2023-09-18T15:09:28;3.17;;;1.40;;
7432;SDS011;32233;49.500;7.764;2023-09-18T15:11:54;3.63;;;1.20;;
7432;SDS011;32233;49.500;7.764;2023-09-18T15:14:21;5.73;;;1.40;;
7432;SDS011;32233;49.500;7.764;2023-09-18T15:16:48;3.17;;;1.30;;
7432;SDS011;32233;49.500;7.764;2023-09-18T15:19:15;2.80;;;1.40;;
7432;SDS011;32233;49.500;7.764;2023-09-18T15:21:46;3.10;;;1.30;;
7432;SDS011;32233;49.500;7.764;2023-09-18T15:24:13;3.30;;;1.60;;
7432;SDS011;32233;49.500;7.764;2023-09-18T15:26:40;3.23;;;1.37;;
7432;SDS011;32233;49.500;7.764;2023-09-18T15:29:06;2.77;;;1.30;;
7432;SDS011;32233;49.500;7.764;2023-09-18T15:31:35;4.03;;;1.50;;